Airports

 

 

Airport Name Latest METAR Visual Conditions
Atlantic City Int. (ACY) KACY 301354Z 27014G22KT 10SM FEW020 17/12 A2978 RMK AO2 SLP084 T01720117 VFR
Baltimore International Airport (BWI) KBWI 301354Z 25012G19KT 10SM FEW030 FEW250 17/11 A2982 RMK AO2 SLP098 T01670111 VFR
Washington National Airport (DCA) KDCA 301352Z 24006KT 10SM FEW140 17/12 A2986 RMK AO2 SLP111 T01720122 VFR
Dulles International Airport (IAD) KIAD 301355Z VRB/06KT 10SM FEW130 17/11 A2985 RMK SLP106 VFR
Norfolk International Airport (ORF) KORF 301351Z 24008G15KT 10SM CLR 19/12 A2991 RMK AO2 SLP128 T01890122 VFR
Raleigh International Airport (RDU) KRDU 301351Z 30005KT 10SM FEW250 17/11 A3000 RMK AO2 SLP155 T01670106 VFR
Richmond International Airport (RIC) KRIC 301354Z 26011KT 10SM CLR 17/11 A2991 RMK AO2 SLP132 T01720106 VFR
Roanoke Regional Airport (ROA) KROA 301354Z 28013G20KT 10SM FEW042 14/06 A2996 RMK AO2 SLP140 T01440061 VFR